createdAt,value
2022-12-08T00:01:35.418Z,100837.50
2022-12-08T00:04:05.065Z,100833.91
2022-12-08T00:06:53.998Z,100832.69
2022-12-08T00:09:25.197Z,100824.88
2022-12-08T00:11:58.104Z,100831.50
2022-12-08T00:14:28.522Z,100824.63
2022-12-08T00:16:56.643Z,100823.41
2022-12-08T00:19:25.400Z,100816.34
2022-12-08T00:21:55.786Z,100813.50
2022-12-08T00:24:25.468Z,100812.53
2022-12-08T00:26:53.489Z,100795.75
2022-12-08T00:29:21.960Z,100789.59
2022-12-08T00:31:50.072Z,100786.44
2022-12-08T00:34:18.464Z,100785.16
2022-12-08T00:36:46.369Z,100777.69
2022-12-08T00:39:17.560Z,100778.63
2022-12-08T00:42:03.183Z,100782.00
2022-12-08T00:44:31.364Z,100779.28
2022-12-08T00:46:59.305Z,100769.13
2022-12-08T00:49:27.256Z,100769.84
2022-12-08T00:51:55.285Z,100771.69
2022-12-08T00:54:25.055Z,100765.81
2022-12-08T00:56:53.214Z,100762.28
2022-12-08T00:59:21.178Z,100763.00
2022-12-08T01:01:49.813Z,100763.56
2022-12-08T01:04:20.570Z,100754.50
2022-12-08T01:11:26.576Z,100755.66
2022-12-08T01:13:55.479Z,100748.63
2022-12-08T01:16:26.570Z,100753.31
2022-12-08T01:18:55.349Z,100746.81
2022-12-08T01:21:23.791Z,100759.59
2022-12-08T01:23:51.827Z,100753.16
2022-12-08T01:26:20.811Z,100741.06
2022-12-08T01:28:50.707Z,100742.25
2022-12-08T01:31:21.733Z,100742.09
2022-12-08T01:33:50.463Z,100745.88
2022-12-08T01:36:22.799Z,100742.50
2022-12-08T01:38:51.805Z,100744.22
2022-12-08T01:41:22.525Z,100744.06
2022-12-08T01:43:58.101Z,100747.63
2022-12-08T01:46:27.160Z,100736.09
2022-12-08T01:49:01.880Z,100741.69
2022-12-08T01:51:32.362Z,100732.59
2022-12-08T01:54:00.585Z,100738.34
2022-12-08T01:56:37.198Z,100753.47
2022-12-08T01:59:08.064Z,100762.66
2022-12-08T02:01:36.168Z,100756.31
2022-12-08T02:04:05.486Z,100759.06
2022-12-08T02:06:36.628Z,100759.72
2022-12-08T02:09:06.577Z,100763.34
2022-12-08T02:11:34.825Z,100752.16
2022-12-08T02:14:08.324Z,100757.28
2022-12-08T02:16:44.298Z,100765.06
2022-12-08T02:19:35.960Z,100760.72
2022-12-08T02:22:13.007Z,100760.31
2022-12-08T02:24:48.049Z,100749.25
2022-12-08T02:27:29.292Z,100748.56
2022-12-08T02:30:19.860Z,100737.94
2022-12-08T02:33:24.983Z,100726.44
2022-12-08T02:36:00.944Z,100710.50
2022-12-08T02:38:46.889Z,100704.88
2022-12-08T02:41:24.524Z,100697.50
2022-12-08T02:44:01.740Z,100693.94
2022-12-08T02:46:35.503Z,100692.91
2022-12-08T02:49:04.118Z,100692.91
2022-12-08T02:51:33.436Z,100694.56
2022-12-08T02:54:03.558Z,100695.41
2022-12-08T02:56:58.706Z,100681.91
2022-12-08T02:59:45.706Z,100680.63
2022-12-08T03:02:34.936Z,100668.00
2022-12-08T03:05:09.536Z,100673.16
2022-12-08T03:07:46.745Z,100689.50
2022-12-08T03:10:22.651Z,100698.97
2022-12-08T03:12:53.393Z,100697.66
2022-12-08T03:15:23.119Z,100700.53
2022-12-08T03:17:55.420Z,100689.59
2022-12-08T03:20:25.766Z,100692.00
2022-12-08T03:22:59.538Z,100689.31
2022-12-08T03:25:31.860Z,100694.78
2022-12-08T03:28:00.780Z,100682.13
2022-12-08T03:30:30.850Z,100676.06
2022-12-08T03:33:03.966Z,100673.97
2022-12-08T03:35:36.276Z,100675.59
2022-12-08T03:38:07.580Z,100666.22
2022-12-08T03:40:35.923Z,100660.94
2022-12-08T03:43:04.877Z,100668.69
2022-12-08T03:45:32.876Z,100663.22
2022-12-08T03:48:01.490Z,100667.91
2022-12-08T03:50:29.634Z,100664.53
2022-12-08T03:52:57.667Z,100655.28
2022-12-08T03:55:27.055Z,100655.47
2022-12-08T03:57:54.928Z,100667.34
2022-12-08T04:00:23.465Z,100661.16
2022-12-08T04:02:51.716Z,100668.00
2022-12-08T04:05:19.801Z,100676.84
2022-12-08T04:07:48.419Z,100675.09
2022-12-08T04:10:17.115Z,100672.47
2022-12-08T04:12:47.705Z,100663.75
2022-12-08T04:15:16.368Z,100643.31
2022-12-08T04:17:45.336Z,100656.94
2022-12-08T04:20:15.432Z,100661.88
2022-12-08T04:22:44.286Z,100660.03
2022-12-08T04:25:13.532Z,100672.38
2022-12-08T04:27:43.001Z,100669.50
2022-12-08T04:30:14.222Z,100674.03
2022-12-08T04:32:47.373Z,100679.16
2022-12-08T04:35:15.512Z,100687.63
2022-12-08T04:37:44.692Z,100677.41
2022-12-08T04:44:55.850Z,100676.66
2022-12-08T04:47:25.195Z,100685.09
2022-12-08T04:49:53.325Z,100679.53
2022-12-08T04:52:21.444Z,100677.34
2022-12-08T04:54:49.408Z,100654.00
2022-12-08T04:57:17.466Z,100650.44
2022-12-08T04:59:45.526Z,100654.28
2022-12-08T05:02:14.127Z,100649.28
2022-12-08T05:04:43.600Z,100646.59
2022-12-08T05:07:12.006Z,100651.00
2022-12-08T05:09:40.015Z,100643.56
2022-12-08T05:12:08.681Z,100647.66
2022-12-08T05:14:36.605Z,100641.72
2022-12-08T05:17:09.311Z,100633.63
2022-12-08T05:19:37.792Z,100632.59
2022-12-08T05:22:07.119Z,100626.25
2022-12-08T05:24:35.216Z,100638.81
2022-12-08T05:27:03.393Z,100641.78
2022-12-08T05:29:31.599Z,100650.47
2022-12-08T05:31:59.774Z,100653.50
2022-12-08T05:34:27.967Z,100645.50
2022-12-08T05:36:56.463Z,100651.22
2022-12-08T05:39:26.024Z,100646.25
2022-12-08T05:41:53.913Z,100640.66
2022-12-08T05:44:21.936Z,100636.56
2022-12-08T05:46:50.381Z,100634.72
2022-12-08T05:49:19.268Z,100631.72
2022-12-08T05:51:47.289Z,100633.94
2022-12-08T05:54:15.260Z,100631.19
2022-12-08T05:56:44.686Z,100631.59
2022-12-08T05:59:12.997Z,100625.06
2022-12-08T06:01:41.039Z,100628.38
2022-12-08T06:04:09.974Z,100626.66
2022-12-08T06:06:38.515Z,100623.31
2022-12-08T06:09:07.327Z,100627.47
2022-12-08T06:11:36.227Z,100623.38
2022-12-08T06:14:05.595Z,100624.41
2022-12-08T06:16:33.664Z,100614.00
2022-12-08T06:19:01.781Z,100619.50
2022-12-08T06:21:29.725Z,100617.78
2022-12-08T06:23:57.685Z,100613.16
2022-12-08T06:26:25.803Z,100622.50
2022-12-08T06:28:53.827Z,100624.09
2022-12-08T06:31:25.687Z,100625.00
2022-12-08T06:33:55.038Z,100631.00
2022-12-08T06:36:25.427Z,100632.00
2022-12-08T06:38:53.826Z,100625.72
2022-12-08T06:41:21.918Z,100632.81
2022-12-08T06:43:50.011Z,100639.50
2022-12-08T06:46:20.897Z,100640.69
2022-12-08T06:48:50.816Z,100633.97
2022-12-08T06:51:20.410Z,100633.97
2022-12-08T06:53:48.714Z,100624.97
2022-12-08T06:56:20.245Z,100627.06
2022-12-08T06:58:52.560Z,100632.00
2022-12-08T07:01:21.123Z,100635.72
2022-12-08T07:03:50.448Z,100631.63
2022-12-08T07:06:23.212Z,100645.53
2022-12-08T07:08:51.810Z,100634.53
2022-12-08T07:11:22.323Z,100643.75
2022-12-08T07:13:50.707Z,100640.03
2022-12-08T07:16:18.704Z,100644.63
2022-12-08T07:18:46.739Z,100648.97
2022-12-08T07:21:16.345Z,100642.09
2022-12-08T07:23:50.182Z,100649.72
2022-12-08T07:26:22.240Z,100642.78
2022-12-08T07:28:50.187Z,100643.94
2022-12-08T07:31:19.984Z,100644.66
2022-12-08T07:33:48.245Z,100640.56
2022-12-08T07:36:17.916Z,100640.22
2022-12-08T07:38:46.099Z,100643.63
2022-12-08T07:41:14.671Z,100640.84
2022-12-08T07:43:43.320Z,100645.03
2022-12-08T07:46:13.988Z,100641.34
2022-12-08T07:48:42.437Z,100649.03
2022-12-08T07:51:12.830Z,100650.56
2022-12-08T07:53:44.528Z,100648.97
2022-12-08T07:56:15.005Z,100640.66
2022-12-08T07:58:45.811Z,100649.25
2022-12-08T08:01:26.132Z,100653.91
2022-12-08T08:03:55.102Z,100660.22
2022-12-08T08:06:23.664Z,100658.19
2022-12-08T08:08:53.170Z,100658.91
2022-12-08T08:11:21.799Z,100660.63
2022-12-08T08:13:49.931Z,100653.78
2022-12-08T08:16:19.079Z,100664.59
2022-12-08T08:18:48.806Z,100669.94
2022-12-08T08:21:43.894Z,100686.13
2022-12-08T08:24:06.788Z,100687.41
2022-12-08T08:26:34.731Z,100686.53
2022-12-08T08:29:02.698Z,100683.25
2022-12-08T08:31:30.720Z,100675.16
2022-12-08T08:34:00.637Z,100671.59
2022-12-08T08:36:28.618Z,100659.81
2022-12-08T08:38:56.547Z,100655.94
2022-12-08T08:41:25.786Z,100653.03
2022-12-08T08:43:55.391Z,100656.50
2022-12-08T08:46:23.778Z,100659.41
2022-12-08T08:48:51.788Z,100649.69
2022-12-08T08:51:19.720Z,100648.03
2022-12-08T08:53:47.624Z,100651.19
2022-12-08T08:56:19.319Z,100661.31
2022-12-08T08:58:50.404Z,100658.34
2022-12-08T09:01:20.719Z,100657.09
2022-12-08T09:03:49.527Z,100664.91
2022-12-08T09:06:18.290Z,100657.97
2022-12-08T09:08:46.917Z,100667.25
2022-12-08T09:11:16.815Z,100671.41
2022-12-08T09:13:44.679Z,100664.09
2022-12-08T09:16:14.386Z,100676.28
2022-12-08T09:18:42.951Z,100673.19
2022-12-08T09:21:15.103Z,100677.75
2022-12-08T09:23:43.320Z,100679.44
2022-12-08T09:26:11.807Z,100686.78
2022-12-08T09:28:39.770Z,100687.53
2022-12-08T09:31:07.745Z,100688.88
2022-12-08T09:33:37.025Z,100686.19
2022-12-08T09:36:05.787Z,100687.56
2022-12-08T09:38:33.906Z,100689.31
2022-12-08T09:41:05.270Z,100686.25
2022-12-08T09:43:53.262Z,100679.63
2022-12-08T09:46:22.506Z,100678.19
2022-12-08T09:48:56.043Z,100675.16
2022-12-08T09:51:25.978Z,100666.56
2022-12-08T09:53:57.821Z,100671.88
2022-12-08T09:56:29.992Z,100670.75
2022-12-08T09:59:01.611Z,100671.22
2022-12-08T10:01:31.830Z,100671.84
2022-12-08T10:04:02.240Z,100670.25
2022-12-08T10:06:34.601Z,100663.56
2022-12-08T10:09:12.564Z,100664.03
2022-12-08T10:11:51.315Z,100655.41
2022-12-08T10:14:28.148Z,100652.84
2022-12-08T10:17:02.326Z,100646.19
2022-12-08T10:19:35.326Z,100657.06
2022-12-08T10:22:13.319Z,100654.31
2022-12-08T10:24:49.176Z,100661.16
2022-12-08T10:27:17.052Z,100654.88
2022-12-08T10:29:45.278Z,100659.78
2022-12-08T10:32:18.683Z,100659.41
2022-12-08T10:35:07.551Z,100665.72
2022-12-08T10:37:35.554Z,100669.56
2022-12-08T10:40:10.965Z,100673.94
2022-12-08T10:42:42.235Z,100671.41
2022-12-08T10:45:23.446Z,100678.75
2022-12-08T10:47:59.775Z,100677.16
2022-12-08T10:50:37.014Z,100678.84
2022-12-08T10:53:14.047Z,100678.91
2022-12-08T10:55:45.282Z,100680.81
2022-12-08T10:58:27.673Z,100673.84
2022-12-08T11:00:57.497Z,100665.78
2022-12-08T11:03:29.753Z,100657.97
2022-12-08T11:06:07.127Z,100668.56
2022-12-08T11:08:48.187Z,100658.38
2022-12-08T11:11:17.065Z,100661.34
2022-12-08T11:13:45.107Z,100664.81
2022-12-08T11:16:16.499Z,100659.81
2022-12-08T11:18:46.950Z,100662.41
2022-12-08T11:21:18.979Z,100666.59
2022-12-08T11:23:49.632Z,100668.56
2022-12-08T11:26:27.231Z,100666.31
2022-12-08T11:28:55.476Z,100670.84
2022-12-08T11:31:30.095Z,100670.38
2022-12-08T11:33:58.145Z,100666.16
2022-12-08T11:36:31.610Z,100668.66
2022-12-08T11:39:01.159Z,100670.06
2022-12-08T11:41:35.332Z,100675.13
2022-12-08T11:44:12.956Z,100663.75
2022-12-08T11:46:46.395Z,100666.75
2022-12-08T11:49:15.171Z,100666.09
2022-12-08T11:51:51.010Z,100670.91
2022-12-08T11:54:24.804Z,100656.69
2022-12-08T11:56:55.623Z,100659.91
2022-12-08T11:59:29.764Z,100656.16
2022-12-08T12:01:59.223Z,100655.41
2022-12-08T12:04:33.163Z,100651.50
2022-12-08T12:07:26.012Z,100644.44
2022-12-08T12:10:18.579Z,100641.13
2022-12-08T12:13:00.353Z,100639.41
2022-12-08T12:16:19.074Z,100631.25
2022-12-08T12:18:50.624Z,100639.63
2022-12-08T12:21:23.358Z,100637.56
2022-12-08T12:23:57.236Z,100644.28
2022-12-08T12:26:27.182Z,100642.31
2022-12-08T12:28:59.003Z,100645.06
2022-12-08T12:31:31.629Z,100649.94
2022-12-08T12:34:08.463Z,100649.66
2022-12-08T12:36:52.612Z,100647.09
2022-12-08T12:39:26.171Z,100648.50
2022-12-08T12:41:55.151Z,100639.97
2022-12-08T12:44:39.111Z,100645.66
2022-12-08T12:47:10.007Z,100643.47
2022-12-08T12:50:07.398Z,100652.75
2022-12-08T12:52:54.607Z,100649.72
2022-12-08T12:55:46.471Z,100646.13
2022-12-08T12:58:37.571Z,100640.59
2022-12-08T13:01:46.888Z,100652.72
2022-12-08T13:04:16.302Z,100653.03
2022-12-08T13:06:48.172Z,100650.06
2022-12-08T13:09:25.039Z,100642.66
2022-12-08T13:11:57.946Z,100639.50
2022-12-08T13:14:32.347Z,100632.81
2022-12-08T13:17:02.450Z,100631.28
2022-12-08T13:19:35.242Z,100629.38
2022-12-08T13:22:03.794Z,100628.69
2022-12-08T13:24:35.929Z,100630.81
2022-12-08T13:27:36.014Z,100632.22
2022-12-08T13:30:42.257Z,100633.22
2022-12-08T13:33:19.591Z,100640.38
2022-12-08T13:36:11.692Z,100634.66
2022-12-08T13:38:40.694Z,100631.97
2022-12-08T13:41:19.848Z,100633.50
2022-12-08T13:44:50.379Z,100637.66
2022-12-08T13:56:51.541Z,100626.22
2022-12-08T13:58:25.534Z,100623.84
2022-12-08T14:01:05.709Z,100632.38
2022-12-08T14:03:45.139Z,100632.38
2022-12-08T14:06:30.448Z,100637.22
2022-12-08T14:09:09.965Z,100630.59
2022-12-08T14:11:41.773Z,100635.72
2022-12-08T14:14:27.257Z,100640.97
2022-12-08T14:17:06.917Z,100637.28
2022-12-08T14:19:36.187Z,100640.81
2022-12-08T14:22:11.899Z,100641.97
2022-12-08T14:24:40.511Z,100636.16
2022-12-08T14:27:10.321Z,100634.13
2022-12-08T14:29:41.826Z,100629.59
2022-12-08T14:32:30.126Z,100637.97
2022-12-08T14:35:04.025Z,100636.00
2022-12-08T14:37:34.226Z,100625.75
2022-12-08T14:40:05.861Z,100632.44
2022-12-08T14:42:43.865Z,100626.88
2022-12-08T14:45:15.121Z,100632.72
2022-12-08T14:47:45.653Z,100636.13
2022-12-08T14:50:40.292Z,100630.88
2022-12-08T14:53:14.918Z,100634.72
2022-12-08T14:55:46.047Z,100632.59
2022-12-08T14:58:20.283Z,100629.44
2022-12-08T15:00:51.547Z,100637.13
2022-12-08T15:03:23.705Z,100635.56
2022-12-08T15:05:53.552Z,100637.53
2022-12-08T15:08:21.759Z,100633.13
2022-12-08T15:11:14.731Z,100639.38
2022-12-08T15:13:46.410Z,100649.38
2022-12-08T15:16:27.423Z,100641.66
2022-12-08T15:19:23.252Z,100648.50
2022-12-08T15:21:52.377Z,100647.09
2022-12-08T15:24:23.377Z,100638.41
2022-12-08T15:26:53.059Z,100647.09
2022-12-08T15:29:24.106Z,100643.84
2022-12-08T15:31:53.555Z,100639.25
2022-12-08T15:34:23.660Z,100641.97
2022-12-08T15:36:53.859Z,100642.69
2022-12-08T15:39:31.190Z,100639.25
2022-12-08T15:41:59.715Z,100643.53
2022-12-08T15:44:29.184Z,100639.53
2022-12-08T15:46:57.471Z,100644.66
2022-12-08T15:49:27.008Z,100649.50
2022-12-08T15:52:08.086Z,100655.78
2022-12-08T15:54:38.893Z,100651.78
2022-12-08T15:57:44.167Z,100656.63
2022-12-08T15:59:54.920Z,100663.59
2022-12-08T16:02:25.156Z,100660.88
2022-12-08T16:07:43.109Z,100661.47
2022-12-08T16:10:17.418Z,100668.88
2022-12-08T16:15:59.649Z,100671.00
2022-12-08T16:18:31.327Z,100671.13
2022-12-08T16:21:45.558Z,100675.25
2022-12-08T16:23:49.683Z,100678.25
2022-12-08T16:27:01.196Z,100681.63
2022-12-08T16:29:09.039Z,100672.66
2022-12-08T16:31:36.950Z,100678.31
2022-12-08T16:34:04.972Z,100678.16
2022-12-08T16:36:34.210Z,100680.16
2022-12-08T16:39:02.642Z,100684.00
2022-12-08T16:41:48.204Z,100677.34
2022-12-08T16:44:16.209Z,100679.75
2022-12-08T16:46:44.337Z,100684.88
2022-12-08T16:49:12.550Z,100684.16
2022-12-08T16:51:43.393Z,100693.28
2022-12-08T16:54:12.024Z,100680.84
2022-12-08T16:56:40.175Z,100688.94
2022-12-08T16:59:08.012Z,100686.28
2022-12-08T17:01:35.985Z,100688.81
2022-12-08T17:04:30.551Z,100689.41
2022-12-08T17:06:53.858Z,100688.84
2022-12-08T17:09:21.717Z,100689.13
2022-12-08T17:11:50.376Z,100683.41
2022-12-08T17:14:18.566Z,100692.66
2022-12-08T17:16:46.856Z,100682.28
2022-12-08T17:19:15.786Z,100693.50
2022-12-08T17:21:45.532Z,100693.94
2022-12-08T17:24:20.217Z,100693.38
2022-12-08T17:26:49.907Z,100701.06
2022-12-08T17:29:18.758Z,100686.84
2022-12-08T17:31:46.833Z,100696.06
2022-12-08T17:34:15.027Z,100693.84
2022-12-08T17:36:43.207Z,100691.13
2022-12-08T17:39:17.840Z,100690.97
2022-12-08T17:41:48.206Z,100690.66
2022-12-08T17:44:18.567Z,100683.81
2022-12-08T17:46:52.499Z,100681.56
2022-12-08T17:49:23.508Z,100690.06
2022-12-08T17:51:53.005Z,100690.75
2022-12-08T17:54:21.903Z,100682.00
2022-12-08T17:56:51.562Z,100684.97
2022-12-08T17:59:19.983Z,100684.38
2022-12-08T18:01:48.257Z,100691.19
2022-12-08T18:04:16.365Z,100676.91
2022-12-08T18:06:44.386Z,100682.91
2022-12-08T18:09:12.389Z,100683.06
2022-12-08T18:11:40.570Z,100685.03
2022-12-08T18:14:11.113Z,100684.44
2022-12-08T18:16:41.034Z,100676.28
2022-12-08T18:19:09.743Z,100678.88
2022-12-08T18:21:38.393Z,100683.84
2022-12-08T18:24:07.236Z,100675.91
2022-12-08T18:26:35.281Z,100670.63
2022-12-08T18:29:03.891Z,100681.69
2022-12-08T18:31:33.201Z,100679.84
2022-12-08T18:34:01.203Z,100675.97
2022-12-08T18:36:29.382Z,100679.97
2022-12-08T18:38:57.264Z,100679.88
2022-12-08T18:41:26.741Z,100683.41
2022-12-08T18:43:57.043Z,100684.66
2022-12-08T18:46:26.370Z,100681.84
2022-12-08T18:48:55.796Z,100682.84
2022-12-08T18:51:25.264Z,100685.25
2022-12-08T18:53:54.029Z,100691.84
2022-12-08T18:56:24.555Z,100693.84
2022-12-08T18:58:52.687Z,100687.31
2022-12-08T19:01:21.105Z,100681.66
2022-12-08T19:06:40.287Z,100690.44
2022-12-08T19:09:08.765Z,100684.03
2022-12-08T19:11:36.734Z,100677.84
2022-12-08T19:14:05.005Z,100688.44
2022-12-08T19:16:32.990Z,100685.34
2022-12-08T19:19:01.025Z,100691.06
2022-12-08T19:21:29.044Z,100693.34
2022-12-08T19:23:58.600Z,100695.78
2022-12-08T19:26:28.151Z,100700.25
2022-12-08T19:28:56.140Z,100692.22
2022-12-08T19:31:24.143Z,100702.59
2022-12-08T19:33:52.388Z,100706.78
2022-12-08T19:36:22.616Z,100702.53
2022-12-08T19:39:09.196Z,100704.88
2022-12-08T19:41:55.551Z,100716.47
2022-12-08T19:44:43.495Z,100716.47
2022-12-08T19:47:11.541Z,100712.97
2022-12-08T19:49:39.731Z,100706.59
2022-12-08T19:52:07.873Z,100709.75
2022-12-08T19:54:36.133Z,100709.38
2022-12-08T19:57:05.638Z,100709.47
2022-12-08T19:59:33.571Z,100710.69
2022-12-08T20:02:01.538Z,100702.69
2022-12-08T20:04:29.734Z,100697.72
2022-12-08T20:06:58.163Z,100697.44
2022-12-08T20:09:26.515Z,100698.03
2022-12-08T20:11:55.147Z,100707.00
2022-12-08T20:14:25.311Z,100699.88
2022-12-08T20:16:53.449Z,100702.81
2022-12-08T20:19:21.475Z,100711.66
2022-12-08T20:21:49.548Z,100711.53
2022-12-08T20:24:17.923Z,100712.44
2022-12-08T20:26:46.264Z,100715.25
2022-12-08T20:29:16.859Z,100715.75
2022-12-08T20:31:46.689Z,100711.91
2022-12-08T20:34:16.288Z,100713.59
2022-12-08T20:36:44.597Z,100716.28
2022-12-08T20:39:13.697Z,100708.97
2022-12-08T20:41:41.728Z,100719.53
2022-12-08T20:44:09.933Z,100714.13
2022-12-08T20:46:38.034Z,100715.75
2022-12-08T20:49:07.456Z,100710.13
2022-12-08T20:51:35.840Z,100724.47
2022-12-08T20:54:04.726Z,100721.00
2022-12-08T20:56:33.255Z,100717.22
2022-12-08T20:59:01.325Z,100718.78
2022-12-08T21:01:29.469Z,100719.38
2022-12-08T21:03:57.695Z,100724.00
2022-12-08T21:06:28.133Z,100719.97
2022-12-08T21:08:56.178Z,100729.31
2022-12-08T21:11:24.440Z,100734.03
2022-12-08T21:13:52.779Z,100735.50
2022-12-08T21:16:20.832Z,100740.19
2022-12-08T21:18:48.995Z,100744.59
2022-12-08T21:21:17.947Z,100742.63
2022-12-08T21:23:47.556Z,100748.63
2022-12-08T21:26:18.452Z,100746.94
2022-12-08T21:28:47.663Z,100749.28
2022-12-08T21:31:18.512Z,100739.97
2022-12-08T21:33:47.033Z,100744.34
2022-12-08T21:36:18.694Z,100738.81
2022-12-08T21:38:48.697Z,100729.50
2022-12-08T21:41:39.750Z,100726.31
2022-12-08T21:44:09.564Z,100732.41
2022-12-08T21:46:37.793Z,100737.09
2022-12-08T21:49:06.377Z,100744.09
2022-12-08T21:51:37.766Z,100740.03
2022-12-08T21:54:07.326Z,100735.09
2022-12-08T21:56:35.526Z,100742.28
2022-12-08T21:59:03.544Z,100737.38
2022-12-08T22:01:31.615Z,100733.75
2022-12-08T22:04:00.015Z,100726.97
2022-12-08T22:06:28.441Z,100729.84
2022-12-08T22:08:57.646Z,100725.84
2022-12-08T22:11:27.683Z,100732.50
2022-12-08T22:13:56.081Z,100735.69
2022-12-08T22:16:24.170Z,100737.50
2022-12-08T22:18:52.569Z,100727.91
2022-12-08T22:21:20.685Z,100728.63
2022-12-08T22:23:48.620Z,100728.44
2022-12-08T22:26:16.670Z,100737.84
2022-12-08T22:28:46.082Z,100735.63
2022-12-08T22:31:16.224Z,100742.38
2022-12-08T22:33:44.794Z,100739.91
2022-12-08T22:36:17.409Z,100745.75
2022-12-08T22:38:45.914Z,100740.28
2022-12-08T22:41:14.372Z,100738.06
2022-12-08T22:43:42.961Z,100738.53
2022-12-08T22:46:16.707Z,100745.91
2022-12-08T22:48:44.716Z,100738.25
2022-12-08T22:51:12.979Z,100739.66
2022-12-08T22:53:41.357Z,100734.75
2022-12-08T22:56:12.682Z,100740.25
2022-12-08T22:58:41.984Z,100739.06
2022-12-08T23:01:20.694Z,100740.81
2022-12-08T23:03:50.229Z,100735.00
2022-12-08T23:06:18.522Z,100731.75
2022-12-08T23:08:47.238Z,100738.19
2022-12-08T23:11:15.975Z,100741.03
2022-12-08T23:13:44.311Z,100739.19
2022-12-08T23:16:13.821Z,100719.84
2022-12-08T23:18:43.674Z,100723.16
2022-12-08T23:21:16.720Z,100733.53
2022-12-08T23:23:45.121Z,100737.47
2022-12-08T23:26:23.351Z,100739.94
2022-12-08T23:28:51.877Z,100733.31
2022-12-08T23:31:21.506Z,100744.34
2022-12-08T23:33:50.024Z,100733.22
2022-12-08T23:36:21.095Z,100737.75
2022-12-08T23:38:49.530Z,100731.88
2022-12-08T23:41:17.817Z,100735.81
2022-12-08T23:43:46.719Z,100727.72
2022-12-08T23:46:15.245Z,100728.81
2022-12-08T23:48:43.351Z,100728.56
2022-12-08T23:51:12.580Z,100728.56
2022-12-08T23:53:42.262Z,100739.31
2022-12-08T23:56:12.258Z,100732.56
2022-12-08T23:58:40.627Z,100735.03
